createdAt,value
2018-12-13T00:00:37.037Z,97.69
2018-12-13T00:01:36.976Z,97.92
2018-12-13T00:02:36.961Z,97.45
2018-12-13T00:03:36.946Z,97.26
2018-12-13T00:04:36.945Z,97.26
2018-12-13T00:05:36.924Z,97.17
2018-12-13T00:06:36.912Z,97.26
2018-12-13T00:07:36.901Z,97.07
2018-12-13T00:08:36.882Z,97.07
2018-12-13T00:09:36.868Z,97.17
2018-12-13T00:10:36.857Z,97.17
2018-12-13T00:11:36.845Z,96.97
2018-12-13T00:12:36.836Z,97.07
2018-12-13T00:13:36.823Z,97.55
2018-12-13T00:14:36.809Z,97.12
2018-12-13T00:15:36.797Z,97.02
2018-12-13T00:16:36.779Z,97.12
2018-12-13T00:17:36.766Z,97.21
2018-12-13T00:18:36.757Z,97.31
2018-12-13T00:19:36.744Z,97.40
2018-12-13T00:20:36.732Z,97.21
2018-12-13T00:21:36.714Z,97.88
2018-12-13T00:22:36.701Z,97.88
2018-12-13T00:23:36.747Z,97.78
2018-12-13T00:24:36.682Z,97.97
2018-12-13T00:25:36.667Z,97.88
2018-12-13T00:26:36.655Z,97.88
2018-12-13T00:27:36.643Z,98.07
2018-12-13T00:28:36.625Z,98.07
2018-12-13T00:29:36.612Z,97.88
2018-12-13T00:30:36.598Z,97.69
2018-12-13T00:31:36.587Z,97.88
2018-12-13T00:32:36.577Z,97.88
2018-12-13T00:33:36.563Z,97.78
2018-12-13T00:34:36.550Z,98.07
2018-12-13T00:35:36.534Z,97.50
2018-12-13T00:36:39.724Z,97.31
2018-12-13T00:37:36.513Z,97.78
2018-12-13T00:38:36.499Z,98.35
2018-12-13T00:39:36.487Z,97.88
2018-12-13T00:40:36.469Z,98.16
2018-12-13T00:41:36.455Z,98.16
2018-12-13T00:42:36.444Z,98.25
2018-12-13T00:43:36.429Z,98.35
2018-12-13T00:44:36.422Z,98.35
2018-12-13T00:45:36.408Z,98.44
2018-12-13T00:46:36.395Z,98.63
2018-12-13T00:47:36.381Z,98.63
2018-12-13T00:48:36.364Z,98.63
2018-12-13T00:49:36.350Z,99.30
2018-12-13T00:50:36.342Z,99.01
2018-12-13T00:51:36.331Z,99.06
2018-12-13T00:52:36.314Z,99.34
2018-12-13T00:53:36.297Z,99.25
2018-12-13T00:54:36.285Z,99.06
2018-12-13T00:55:36.272Z,99.34
2018-12-13T00:56:36.262Z,99.53
2018-12-13T00:57:36.271Z,99.72
2018-12-13T00:58:36.231Z,99.06
2018-12-13T00:59:36.220Z,99.91
2018-12-13T01:00:36.209Z,99.72
2018-12-13T01:01:36.196Z,99.34
2018-12-13T01:02:36.182Z,99.99
2018-12-13T01:03:36.168Z,99.99
2018-12-13T01:04:36.151Z,99.82
2018-12-13T01:05:36.140Z,99.99
2018-12-13T01:06:36.130Z,99.99
2018-12-13T01:07:36.117Z,99.99
2018-12-13T01:08:36.096Z,99.99
2018-12-13T01:09:36.082Z,99.99
2018-12-13T01:10:36.663Z,99.99
2018-12-13T01:11:36.056Z,99.99
2018-12-13T01:12:36.047Z,99.99
2018-12-13T01:13:36.033Z,99.99
2018-12-13T01:14:36.020Z,99.99
2018-12-13T01:15:36.005Z,99.99
2018-12-13T01:16:35.988Z,99.99
2018-12-13T01:17:35.974Z,99.99
2018-12-13T01:18:35.961Z,99.99
2018-12-13T01:19:35.949Z,99.99
2018-12-13T01:20:35.939Z,99.99
2018-12-13T01:21:35.925Z,99.99
2018-12-13T01:22:35.907Z,99.99
2018-12-13T01:23:35.893Z,99.99
2018-12-13T01:24:35.885Z,99.99
2018-12-13T01:25:35.872Z,99.99
2018-12-13T01:26:35.856Z,99.99
2018-12-13T01:27:35.844Z,99.99
2018-12-13T01:28:35.829Z,99.99
2018-12-13T01:29:35.811Z,99.99
2018-12-13T01:30:35.797Z,99.99
2018-12-13T01:31:35.784Z,99.99
2018-12-13T01:32:35.778Z,99.99
2018-12-13T01:33:35.761Z,99.99
2018-12-13T01:34:35.748Z,99.99
2018-12-13T01:35:35.734Z,99.99
2018-12-13T01:36:35.717Z,99.99
2018-12-13T01:37:35.703Z,99.99
2018-12-13T01:38:35.693Z,99.99
2018-12-13T01:39:35.680Z,99.99
2018-12-13T01:40:35.662Z,99.99
2018-12-13T01:41:35.647Z,99.99
2018-12-13T01:42:35.635Z,99.99
2018-12-13T01:43:35.620Z,99.99
2018-12-13T01:44:35.612Z,99.99
2018-12-13T01:45:35.598Z,99.99
2018-12-13T01:46:35.583Z,99.99
2018-12-13T01:47:35.570Z,99.99
2018-12-13T01:48:35.552Z,99.99
2018-12-13T01:49:35.538Z,99.99
2018-12-13T01:50:35.524Z,99.99
2018-12-13T01:51:35.510Z,99.99
2018-12-13T01:52:35.503Z,99.99
2018-12-13T01:53:35.487Z,99.99
2018-12-13T01:54:35.469Z,99.99
2018-12-13T01:55:35.457Z,99.99
2018-12-13T01:56:35.446Z,99.99
2018-12-13T01:57:35.432Z,99.99
2018-12-13T01:58:35.418Z,99.99
2018-12-13T01:59:35.405Z,99.99
2018-12-13T02:00:35.387Z,99.99
2018-12-13T02:01:35.374Z,99.99
2018-12-13T02:02:35.360Z,99.99
2018-12-13T02:03:35.395Z,99.99
2018-12-13T02:04:35.336Z,99.99
2018-12-13T02:05:35.323Z,99.99
2018-12-13T02:06:35.308Z,99.99
2018-12-13T02:07:35.295Z,99.99
2018-12-13T02:08:35.277Z,99.99
2018-12-13T02:09:35.263Z,99.99
2018-12-13T02:10:35.253Z,99.99
2018-12-13T02:11:35.239Z,99.99
2018-12-13T02:12:35.222Z,99.99
2018-12-13T02:13:35.207Z,99.99
2018-12-13T02:14:35.197Z,99.99
2018-12-13T02:15:35.180Z,99.99
2018-12-13T02:16:35.173Z,99.99
2018-12-13T02:17:35.158Z,99.99
2018-12-13T02:18:35.143Z,99.99
2018-12-13T02:19:35.130Z,99.99
2018-12-13T02:20:35.112Z,99.99
2018-12-13T02:21:35.096Z,99.99
2018-12-13T02:22:35.083Z,99.99
2018-12-13T02:23:35.077Z,99.99
2018-12-13T02:24:35.060Z,99.99
2018-12-13T02:25:35.045Z,99.99
2018-12-13T02:26:35.027Z,99.99
2018-12-13T02:27:35.015Z,99.99
2018-12-13T02:28:35.004Z,99.99
2018-12-13T02:29:34.990Z,99.99
2018-12-13T02:30:34.978Z,99.99
2018-12-13T02:31:34.964Z,99.99
2018-12-13T02:32:34.946Z,99.99
2018-12-13T02:33:34.931Z,99.99
2018-12-13T02:34:34.919Z,99.99
2018-12-13T02:35:34.903Z,99.99
2018-12-13T02:36:34.897Z,99.99
2018-12-13T02:37:34.880Z,99.99
2018-12-13T02:38:34.873Z,99.99
2018-12-13T02:39:34.851Z,99.99
2018-12-13T02:40:34.834Z,99.99
2018-12-13T02:41:34.833Z,99.99
2018-12-13T02:42:34.808Z,99.99
2018-12-13T02:43:34.796Z,99.99
2018-12-13T02:44:34.778Z,99.99
2018-12-13T02:45:34.763Z,99.99
2018-12-13T02:46:34.751Z,99.99
2018-12-13T02:47:34.735Z,99.99
2018-12-13T02:48:34.727Z,99.99
2018-12-13T02:49:34.728Z,99.99
2018-12-13T02:50:34.698Z,99.99
2018-12-13T02:51:34.684Z,99.99
2018-12-13T02:52:34.666Z,99.99
2018-12-13T02:53:34.651Z,99.99
2018-12-13T02:54:34.637Z,99.99
2018-12-13T02:55:34.623Z,99.99
2018-12-13T02:56:34.613Z,99.99
2018-12-13T02:57:34.600Z,99.99
2018-12-13T02:58:34.581Z,99.99
2018-12-13T02:59:34.567Z,99.99
2018-12-13T03:00:34.557Z,99.99
2018-12-13T03:01:34.544Z,99.99
2018-12-13T03:02:34.530Z,99.99
2018-12-13T03:03:34.517Z,99.99
2018-12-13T03:04:34.498Z,99.99
2018-12-13T03:05:34.482Z,99.99
2018-12-13T03:06:34.469Z,99.99
2018-12-13T03:07:34.455Z,99.99
2018-12-13T03:08:34.447Z,99.99
2018-12-13T03:09:34.430Z,99.99
2018-12-13T03:10:34.419Z,99.99
2018-12-13T03:11:34.405Z,99.99
2018-12-13T03:12:34.387Z,99.99
2018-12-13T03:13:34.371Z,99.99
2018-12-13T03:14:34.363Z,99.99
2018-12-13T03:15:34.348Z,99.99
2018-12-13T03:16:34.339Z,99.99
2018-12-13T03:17:34.316Z,99.99
2018-12-13T03:18:34.301Z,99.99
2018-12-13T03:19:34.289Z,99.99
2018-12-13T03:20:34.279Z,99.99
2018-12-13T03:21:34.264Z,99.99
2018-12-13T03:22:34.251Z,99.99
2018-12-13T03:23:34.238Z,99.99
2018-12-13T03:24:34.219Z,99.99
2018-12-13T03:25:34.206Z,99.99
2018-12-13T03:26:34.191Z,99.99
2018-12-13T03:27:34.176Z,99.99
2018-12-13T03:28:34.182Z,99.99
2018-12-13T03:29:34.154Z,99.99
2018-12-13T03:30:34.135Z,99.99
2018-12-13T03:31:34.122Z,99.99
2018-12-13T03:32:34.113Z,99.99
2018-12-13T03:33:34.100Z,99.99
2018-12-13T03:34:34.083Z,99.99
2018-12-13T03:35:34.069Z,99.99
2018-12-13T03:36:34.051Z,99.99
2018-12-13T03:37:34.037Z,99.99
2018-12-13T03:38:34.022Z,99.99
2018-12-13T03:39:34.009Z,99.99
2018-12-13T03:40:34.000Z,99.99
2018-12-13T03:41:33.986Z,99.99
2018-12-13T03:42:33.972Z,99.99
2018-12-13T03:43:33.958Z,99.99
2018-12-13T03:44:33.939Z,99.99
2018-12-13T03:45:33.924Z,99.99
2018-12-13T03:46:33.916Z,99.99
2018-12-13T03:47:33.903Z,99.99
2018-12-13T03:48:33.882Z,99.99
2018-12-13T03:49:33.873Z,99.99
2018-12-13T03:50:33.857Z,99.99
2018-12-13T03:51:33.840Z,99.99
2018-12-13T03:52:33.831Z,99.99
2018-12-13T03:53:33.816Z,99.99
2018-12-13T03:54:33.803Z,99.99
2018-12-13T03:55:33.789Z,99.99
2018-12-13T03:56:33.770Z,99.99
2018-12-13T03:57:33.754Z,99.99
2018-12-13T03:58:33.740Z,99.99
2018-12-13T03:59:33.727Z,99.99
2018-12-13T04:00:33.718Z,99.99
2018-12-13T04:01:33.703Z,99.99
2018-12-13T04:02:33.696Z,99.99
2018-12-13T04:03:33.669Z,99.99
2018-12-13T04:04:33.661Z,99.99
2018-12-13T04:05:33.648Z,99.99
2018-12-13T04:06:33.631Z,99.99
2018-12-13T04:07:33.618Z,99.99
2018-12-13T04:08:33.599Z,99.99
2018-12-13T04:09:33.584Z,99.99
2018-12-13T04:10:33.571Z,99.99
2018-12-13T04:11:33.556Z,99.99
2018-12-13T04:12:33.552Z,99.99
2018-12-13T04:13:33.552Z,99.99
2018-12-13T04:14:33.517Z,99.99
2018-12-13T04:15:33.505Z,99.99
2018-12-13T04:16:33.486Z,99.99
2018-12-13T04:17:33.472Z,99.99
2018-12-13T04:18:33.460Z,99.99
2018-12-13T04:19:33.446Z,99.99
2018-12-13T04:20:33.438Z,99.99
2018-12-13T04:21:33.414Z,99.99
2018-12-13T04:22:33.398Z,99.99
2018-12-13T04:23:33.386Z,99.99
2018-12-13T04:24:33.377Z,99.99
2018-12-13T04:25:33.359Z,99.99
2018-12-13T04:26:33.347Z,99.99
2018-12-13T04:27:33.333Z,99.99
2018-12-13T04:28:33.315Z,99.99
2018-12-13T04:29:33.299Z,99.99
2018-12-13T04:30:33.286Z,99.99
2018-12-13T04:31:33.270Z,99.99
2018-12-13T04:32:33.260Z,99.99
2018-12-13T04:33:33.246Z,99.99
2018-12-13T04:34:33.226Z,99.99
2018-12-13T04:35:33.212Z,99.99
2018-12-13T04:36:33.207Z,99.99
2018-12-13T04:37:35.353Z,99.99
2018-12-13T04:38:33.174Z,99.99
2018-12-13T04:39:33.161Z,99.99
2018-12-13T04:40:33.141Z,99.99
2018-12-13T04:41:33.129Z,99.99
2018-12-13T04:42:33.115Z,99.99
2018-12-13T04:43:33.097Z,99.99
2018-12-13T04:44:33.088Z,99.99
2018-12-13T04:45:33.074Z,99.99
2018-12-13T04:46:33.059Z,99.99
2018-12-13T04:47:33.047Z,99.99
2018-12-13T04:48:33.028Z,99.99
2018-12-13T04:49:33.014Z,99.99
2018-12-13T04:50:33.001Z,99.99
2018-12-13T04:51:32.986Z,99.99
2018-12-13T04:52:32.968Z,99.99
2018-12-13T04:53:32.953Z,99.99
2018-12-13T04:54:32.942Z,99.99
2018-12-13T04:55:32.925Z,99.99
2018-12-13T04:56:32.916Z,99.99
2018-12-13T04:57:32.899Z,99.99
2018-12-13T04:58:32.886Z,99.99
2018-12-13T04:59:32.871Z,99.99
2018-12-13T05:00:32.852Z,99.99
2018-12-13T05:01:32.838Z,99.99
2018-12-13T05:02:32.823Z,99.99
2018-12-13T05:03:32.810Z,99.99
2018-12-13T05:04:32.801Z,99.99
2018-12-13T05:05:32.783Z,99.99
2018-12-13T05:06:32.765Z,99.99
2018-12-13T05:07:32.751Z,99.99
2018-12-13T05:08:32.741Z,99.99
2018-12-13T05:09:32.726Z,99.99
2018-12-13T05:10:32.713Z,99.99
2018-12-13T05:11:32.699Z,99.99
2018-12-13T05:12:32.679Z,99.99
2018-12-13T05:13:32.663Z,99.99
2018-12-13T05:14:32.649Z,99.99
2018-12-13T05:15:32.638Z,99.99
2018-12-13T05:16:32.627Z,99.99
2018-12-13T05:17:32.611Z,99.99
2018-12-13T05:18:32.598Z,99.99
2018-12-13T05:19:32.583Z,99.99
2018-12-13T05:20:32.564Z,99.99
2018-12-13T05:21:32.549Z,99.99
2018-12-13T05:22:32.540Z,99.99
2018-12-13T05:23:32.526Z,99.99
2018-12-13T05:24:32.509Z,99.99
2018-12-13T05:25:32.491Z,99.99
2018-12-13T05:26:32.479Z,99.99
2018-12-13T05:27:32.462Z,99.99
2018-12-13T05:28:32.453Z,99.99
2018-12-13T05:29:32.438Z,99.99
2018-12-13T05:30:32.426Z,99.99
2018-12-13T05:31:32.411Z,99.99
2018-12-13T05:32:32.391Z,99.99
2018-12-13T05:33:32.375Z,99.99
2018-12-13T05:34:32.361Z,99.99
2018-12-13T05:35:32.347Z,99.99
2018-12-13T05:36:32.338Z,99.99
2018-12-13T05:37:32.323Z,99.99
2018-12-13T05:38:32.303Z,99.99
2018-12-13T05:39:32.297Z,99.99
2018-12-13T05:40:32.280Z,99.99
2018-12-13T05:41:32.264Z,99.99
2018-12-13T05:42:32.251Z,99.99
2018-12-13T05:43:32.238Z,99.99
2018-12-13T05:44:32.217Z,99.99
2018-12-13T05:45:32.203Z,99.99
2018-12-13T05:46:32.187Z,99.99
2018-12-13T05:47:32.176Z,99.99
2018-12-13T05:48:32.164Z,99.99
2018-12-13T05:49:32.149Z,99.99
2018-12-13T05:50:32.136Z,99.99
2018-12-13T05:51:32.132Z,99.99
2018-12-13T05:52:32.100Z,99.99
2018-12-13T05:53:32.085Z,99.99
2018-12-13T05:54:32.076Z,99.99
2018-12-13T05:55:32.061Z,99.99
2018-12-13T05:56:32.042Z,99.99
2018-12-13T05:57:32.027Z,99.99
2018-12-13T05:58:32.013Z,99.99
2018-12-13T05:59:31.998Z,99.99
2018-12-13T06:00:31.989Z,99.99
2018-12-13T06:01:31.974Z,99.99
2018-12-13T06:02:31.958Z,99.99
2018-12-13T06:03:31.946Z,99.99
2018-12-13T06:04:31.925Z,99.99
2018-12-13T06:05:31.912Z,99.99
2018-12-13T06:06:31.896Z,99.99
2018-12-13T06:07:31.884Z,99.99
2018-12-13T06:08:31.871Z,99.99
2018-12-13T06:09:31.855Z,99.99
2018-12-13T06:10:31.838Z,99.99
2018-12-13T06:11:31.822Z,99.99
2018-12-13T06:12:31.812Z,99.99
2018-12-13T06:13:31.796Z,99.99
2018-12-13T06:14:31.784Z,99.99
2018-12-13T06:15:31.768Z,99.99
2018-12-13T06:16:31.750Z,99.99
2018-12-13T06:17:31.734Z,99.99
2018-12-13T06:18:31.720Z,99.99
2018-12-13T06:19:31.706Z,99.99
2018-12-13T06:20:31.696Z,99.99
2018-12-13T06:21:36.801Z,99.99
2018-12-13T06:22:31.665Z,99.99
2018-12-13T06:23:31.652Z,99.99
2018-12-13T06:24:31.633Z,99.99
2018-12-13T06:25:31.618Z,99.99
2018-12-13T06:26:31.607Z,99.99
2018-12-13T06:27:31.593Z,99.99
2018-12-13T06:28:31.574Z,99.99
2018-12-13T06:29:31.559Z,99.99
2018-12-13T06:30:31.545Z,99.99
2018-12-13T06:31:31.529Z,99.99
2018-12-13T06:32:31.520Z,99.99
2018-12-13T06:33:31.505Z,99.99
2018-12-13T06:34:31.489Z,99.99
2018-12-13T06:35:31.474Z,99.99
2018-12-13T06:36:31.455Z,99.99
2018-12-13T06:37:31.440Z,99.99
2018-12-13T06:38:31.425Z,99.99
2018-12-13T06:39:31.411Z,99.99
2018-12-13T06:40:31.402Z,99.99
2018-12-13T06:41:31.445Z,99.99
2018-12-13T06:42:31.367Z,99.99
2018-12-13T06:43:31.352Z,99.99
2018-12-13T06:44:31.343Z,99.99
2018-12-13T06:45:31.327Z,99.99
2018-12-13T06:46:31.313Z,99.99
2018-12-13T06:47:31.299Z,99.99
2018-12-13T06:48:31.278Z,99.99
2018-12-13T06:49:31.263Z,99.99
2018-12-13T06:50:31.248Z,99.99
2018-12-13T06:51:31.235Z,99.99
2018-12-13T06:52:31.223Z,99.99
2018-12-13T06:53:31.210Z,99.99
2018-12-13T06:54:31.194Z,99.99
2018-12-13T06:55:31.180Z,99.99
2018-12-13T06:56:31.164Z,99.99
2018-12-13T06:57:31.145Z,99.99
2018-12-13T06:58:31.135Z,99.99
2018-12-13T06:59:31.120Z,99.99
2018-12-13T07:00:31.102Z,99.99
2018-12-13T07:01:31.084Z,99.99
2018-12-13T07:02:31.070Z,99.99
2018-12-13T07:03:31.055Z,99.99
2018-12-13T07:04:31.046Z,99.99
2018-12-13T07:05:31.031Z,99.99
2018-12-13T07:06:31.017Z,99.99
2018-12-13T07:07:31.001Z,99.99
2018-12-13T07:08:30.981Z,99.99
2018-12-13T07:09:30.966Z,99.99
2018-12-13T07:10:30.952Z,99.99
2018-12-13T07:11:30.938Z,99.99
2018-12-13T07:12:30.928Z,99.99
2018-12-13T07:13:30.914Z,99.99
2018-12-13T07:14:30.892Z,99.99
2018-12-13T07:15:30.879Z,99.99
2018-12-13T07:16:30.869Z,99.99
2018-12-13T07:17:30.853Z,99.99
2018-12-13T07:18:30.840Z,99.99
2018-12-13T07:19:30.823Z,99.99
2018-12-13T07:20:30.805Z,99.99
2018-12-13T07:21:30.789Z,99.99
2018-12-13T07:22:30.777Z,99.99
2018-12-13T07:23:30.761Z,99.99
2018-12-13T07:24:30.752Z,99.99
2018-12-13T07:25:30.738Z,99.99
2018-12-13T07:26:30.723Z,99.99
2018-12-13T07:27:30.707Z,99.99
2018-12-13T07:28:30.688Z,99.99
2018-12-13T07:29:30.673Z,99.99
2018-12-13T07:30:30.664Z,99.99
2018-12-13T07:31:30.648Z,99.99
2018-12-13T07:32:30.629Z,99.99
2018-12-13T07:33:30.614Z,99.99
2018-12-13T07:34:30.601Z,99.99
2018-12-13T07:35:30.586Z,99.99
2018-12-13T07:36:30.577Z,99.99
2018-12-13T07:37:30.561Z,99.99
2018-12-13T07:38:30.547Z,99.99
2018-12-13T07:39:30.532Z,99.99
2018-12-13T07:40:30.515Z,99.99
2018-12-13T07:41:30.498Z,99.99
2018-12-13T07:42:30.483Z,99.99
2018-12-13T07:43:30.470Z,99.99
2018-12-13T07:44:30.459Z,99.99
2018-12-13T07:45:30.443Z,99.99
2018-12-13T07:46:30.426Z,99.99
2018-12-13T07:47:30.411Z,99.99
2018-12-13T07:48:30.401Z,99.99
2018-12-13T07:49:30.386Z,99.99
2018-12-13T07:50:30.372Z,99.99
2018-12-13T07:51:30.360Z,99.99
2018-12-13T07:52:30.341Z,99.99
2018-12-13T07:53:30.324Z,99.99
2018-12-13T07:54:30.315Z,99.99
2018-12-13T07:55:30.296Z,99.99
2018-12-13T07:56:30.287Z,99.99
2018-12-13T07:57:30.272Z,99.81
2018-12-13T07:58:30.256Z,99.71
2018-12-13T07:59:30.242Z,98.96
2018-12-13T08:00:30.224Z,99.43
2018-12-13T08:01:30.211Z,99.24
2018-12-13T08:02:30.199Z,98.86
2018-12-13T08:03:30.184Z,98.86
2018-12-13T08:04:30.165Z,99.62
2018-12-13T08:05:30.150Z,99.05
2018-12-13T08:06:30.139Z,99.24
2018-12-13T08:07:30.123Z,98.49
2018-12-13T08:08:30.116Z,98.96
2018-12-13T08:09:30.098Z,99.15
2018-12-13T08:10:30.084Z,99.05
2018-12-13T08:11:30.070Z,98.30
2018-12-13T08:12:30.050Z,98.49
2018-12-13T08:13:30.038Z,98.49
2018-12-13T08:14:30.020Z,99.15
2018-12-13T08:15:30.007Z,99.86
2018-12-13T08:16:29.998Z,99.99
2018-12-13T08:17:29.981Z,99.77
2018-12-13T08:18:29.967Z,99.99
2018-12-13T08:19:29.950Z,98.54
2018-12-13T08:20:29.939Z,98.63
2018-12-13T08:21:29.932Z,97.97
2018-12-13T08:22:29.911Z,97.78
2018-12-13T08:23:29.897Z,97.11
2018-12-13T08:24:29.878Z,96.45
2018-12-13T08:25:29.862Z,96.64
2018-12-13T08:26:29.849Z,97.02
2018-12-13T08:27:29.836Z,96.45
2018-12-13T08:28:29.825Z,97.11
2018-12-13T08:29:29.811Z,97.11
2018-12-13T08:30:29.798Z,97.21
2018-12-13T08:31:29.784Z,96.64
2018-12-13T08:32:29.766Z,96.55
2018-12-13T08:33:29.749Z,96.73
2018-12-13T08:34:29.745Z,96.83
2018-12-13T08:35:29.726Z,96.83
2018-12-13T08:36:29.707Z,96.59
2018-12-13T08:37:29.694Z,96.45
2018-12-13T08:38:29.679Z,96.73
2018-12-13T08:39:29.665Z,96.64
2018-12-13T08:40:29.655Z,96.45
2018-12-13T08:41:29.640Z,96.45
2018-12-13T08:42:29.626Z,96.55
2018-12-13T08:43:29.614Z,96.83
2018-12-13T08:44:29.594Z,96.45
2018-12-13T08:45:29.582Z,96.92
2018-12-13T08:46:29.566Z,96.83
2018-12-13T08:47:29.552Z,96.17
2018-12-13T08:48:29.543Z,95.98
2018-12-13T08:49:29.529Z,96.17
2018-12-13T08:50:29.535Z,96.36
2018-12-13T08:51:29.495Z,95.88
2018-12-13T08:52:29.486Z,96.26
2018-12-13T08:53:29.473Z,96.26
2018-12-13T08:54:29.457Z,96.36
2018-12-13T08:55:29.443Z,96.17
2018-12-13T08:56:29.426Z,95.88
2018-12-13T08:57:29.410Z,96.07
2018-12-13T08:58:29.396Z,95.98
2018-12-13T08:59:29.382Z,96.45
2018-12-13T09:00:29.372Z,96.36
2018-12-13T09:01:29.358Z,96.64
2018-12-13T09:02:29.345Z,96.45
2018-12-13T09:03:29.332Z,95.88
2018-12-13T09:04:29.312Z,95.98
2018-12-13T09:05:29.298Z,96.36
2018-12-13T09:06:29.289Z,95.98
2018-12-13T09:07:29.276Z,96.17
2018-12-13T09:08:33.659Z,96.17
2018-12-13T09:09:29.241Z,95.79
2018-12-13T09:10:29.228Z,95.79
2018-12-13T09:11:29.215Z,95.22
2018-12-13T09:12:29.205Z,95.12
2018-12-13T09:13:29.191Z,95.60
2018-12-13T09:14:29.176Z,95.41
2018-12-13T09:15:29.162Z,95.60
2018-12-13T09:16:31.638Z,95.12
2018-12-13T09:17:29.129Z,95.22
2018-12-13T09:18:29.117Z,95.69
2018-12-13T09:19:29.103Z,95.45
2018-12-13T09:20:29.094Z,95.50
2018-12-13T09:21:29.080Z,96.22
2018-12-13T09:22:29.060Z,95.84
2018-12-13T09:23:29.048Z,95.55
2018-12-13T09:24:29.038Z,95.65
2018-12-13T09:25:29.024Z,95.26
2018-12-13T09:26:29.011Z,95.45
2018-12-13T09:27:28.996Z,94.32
2018-12-13T09:28:28.978Z,94.37
2018-12-13T09:29:28.965Z,94.32
2018-12-13T09:30:28.951Z,94.70
2018-12-13T09:31:28.938Z,94.79
2018-12-13T09:32:28.936Z,94.32
2018-12-13T09:33:28.914Z,95.31
2018-12-13T09:34:28.901Z,94.93
2018-12-13T09:35:28.890Z,94.23
2018-12-13T09:36:28.870Z,92.85
2018-12-13T09:37:28.855Z,91.56
2018-12-13T09:38:28.847Z,90.37
2018-12-13T09:39:28.834Z,87.52
2018-12-13T09:40:28.817Z,84.70
2018-12-13T09:41:28.810Z,81.66
2018-12-13T09:42:28.793Z,80.27
2018-12-13T09:43:28.782Z,78.52
2018-12-13T09:44:28.777Z,78.27
2018-12-13T09:45:28.764Z,76.79
2018-12-13T09:46:28.753Z,75.64
2018-12-13T09:47:28.743Z,74.82
2018-12-13T09:48:28.727Z,74.29
2018-12-13T09:49:28.720Z,72.92
2018-12-13T09:50:28.708Z,72.16
2018-12-13T09:51:28.700Z,71.72
2018-12-13T09:52:28.694Z,70.53
2018-12-13T09:53:28.688Z,70.06
2018-12-13T09:54:28.673Z,70.19
2018-12-13T09:55:28.665Z,69.52
2018-12-13T09:56:28.662Z,68.66
2018-12-13T09:57:28.654Z,68.24
2018-12-13T09:58:28.647Z,68.08
2018-12-13T09:59:28.639Z,69.79
2018-12-13T10:00:28.628Z,70.75
2018-12-13T10:01:28.620Z,71.38
2018-12-13T10:02:28.613Z,71.80
2018-12-13T10:03:28.606Z,72.12
2018-12-13T10:04:28.606Z,71.58
2018-12-13T10:05:28.598Z,70.25
2018-12-13T10:06:28.592Z,69.23
2018-12-13T10:07:28.584Z,69.83
2018-12-13T10:08:28.574Z,70.25
2018-12-13T10:09:28.567Z,69.10
2018-12-13T10:10:28.565Z,68.82
2018-12-13T10:11:28.560Z,67.80
2018-12-13T10:12:28.553Z,67.23
2018-12-13T10:13:28.544Z,66.88
2018-12-13T10:14:28.538Z,66.02
2018-12-13T10:15:32.032Z,64.75
2018-12-13T10:16:28.532Z,65.23
2018-12-13T10:17:28.528Z,65.26
2018-12-13T10:18:28.520Z,65.17
2018-12-13T10:19:28.517Z,64.72
2018-12-13T10:20:28.505Z,63.64
2018-12-13T10:21:28.501Z,62.91
2018-12-13T10:22:28.733Z,62.81
2018-12-13T10:23:28.489Z,62.24
2018-12-13T10:24:28.490Z,62.15
2018-12-13T10:25:28.484Z,62.02
2018-12-13T10:26:28.475Z,62.21
2018-12-13T10:27:28.473Z,62.02
2018-12-13T10:28:28.470Z,62.21
2018-12-13T10:29:28.464Z,62.02
2018-12-13T10:30:28.461Z,61.48
2018-12-13T10:31:28.457Z,63.04
2018-12-13T10:32:28.448Z,62.52
2018-12-13T10:33:28.442Z,63.29
2018-12-13T10:34:28.438Z,63.80
2018-12-13T10:35:28.433Z,63.83
2018-12-13T10:36:28.434Z,63.35
2018-12-13T10:37:28.427Z,63.16
2018-12-13T10:38:28.425Z,62.43
2018-12-13T10:39:28.419Z,61.66
2018-12-13T10:40:28.410Z,61.10
2018-12-13T10:41:28.404Z,60.90
2018-12-13T10:42:28.406Z,60.61
2018-12-13T10:43:28.401Z,60.33
2018-12-13T10:44:28.393Z,60.04
2018-12-13T10:45:28.387Z,60.46
2018-12-13T10:46:28.389Z,59.50
2018-12-13T10:47:28.378Z,59.38
2018-12-13T10:48:28.377Z,60.04
2018-12-13T10:49:28.372Z,59.34
2018-12-13T10:50:28.370Z,59.99
2018-12-13T10:51:28.363Z,60.55
2018-12-13T10:52:28.357Z,61.25
2018-12-13T10:53:28.353Z,61.29
2018-12-13T10:54:28.345Z,62.02
2018-12-13T10:55:28.340Z,63.54
2018-12-13T10:56:28.341Z,64.53
2018-12-13T10:57:28.335Z,64.28
2018-12-13T10:58:28.326Z,63.99
2018-12-13T10:59:28.321Z,63.48
2018-12-13T11:00:28.321Z,63.39
2018-12-13T11:01:28.316Z,63.60
2018-12-13T11:02:28.310Z,63.13
2018-12-13T11:03:28.305Z,63.00
2018-12-13T11:04:28.295Z,63.54
2018-12-13T11:05:28.290Z,64.47
2018-12-13T11:06:28.285Z,65.13
2018-12-13T11:07:28.279Z,65.89
2018-12-13T11:08:28.284Z,65.61
2018-12-13T11:09:28.274Z,65.55
2018-12-13T11:10:28.269Z,65.77
2018-12-13T11:11:28.263Z,65.13
2018-12-13T11:12:28.253Z,64.94
2018-12-13T11:13:28.246Z,63.51
2018-12-13T11:14:28.246Z,62.27
2018-12-13T11:15:28.241Z,62.18
2018-12-13T11:16:28.233Z,63.13
2018-12-13T11:17:28.225Z,63.51
2018-12-13T11:18:28.217Z,64.47
2018-12-13T11:19:28.215Z,65.23
2018-12-13T11:20:28.212Z,65.03
2018-12-13T11:21:28.205Z,64.62
2018-12-13T11:22:28.197Z,65.48
2018-12-13T11:23:28.191Z,65.95
2018-12-13T11:24:28.184Z,66.59
2018-12-13T11:25:28.174Z,67.03
2018-12-13T11:26:28.168Z,67.98
2018-12-13T11:27:28.161Z,68.65
2018-12-13T11:28:28.160Z,68.46
2018-12-13T11:29:28.185Z,69.37
2018-12-13T11:30:28.140Z,69.75
2018-12-13T11:31:28.131Z,70.89
2018-12-13T11:32:28.129Z,71.56
2018-12-13T11:33:28.121Z,72.28
2018-12-13T11:34:28.113Z,73.18
2018-12-13T11:35:28.103Z,73.18
2018-12-13T11:36:28.090Z,73.71
2018-12-13T11:37:28.081Z,74.27
2018-12-13T11:38:28.073Z,73.90
2018-12-13T11:39:28.064Z,73.99
2018-12-13T11:40:28.060Z,74.66
2018-12-13T11:41:28.051Z,74.75
2018-12-13T11:42:28.041Z,75.28
2018-12-13T11:43:28.037Z,75.09
2018-12-13T11:44:28.018Z,75.38
2018-12-13T11:45:28.007Z,75.67
2018-12-13T11:46:28.001Z,75.67
2018-12-13T11:47:27.991Z,76.14
2018-12-13T11:48:27.978Z,75.76
2018-12-13T11:49:27.966Z,76.23
2018-12-13T11:50:27.956Z,76.10
2018-12-13T11:51:27.950Z,76.39
2018-12-13T11:52:27.942Z,76.86
2018-12-13T11:53:27.930Z,76.76
2018-12-13T11:54:27.919Z,77.43
2018-12-13T11:55:27.909Z,77.81
2018-12-13T11:56:27.895Z,78.19
2018-12-13T11:57:27.881Z,77.90
2018-12-13T11:58:27.870Z,77.81
2018-12-13T11:59:27.858Z,78.38
2018-12-13T12:00:27.855Z,78.56
2018-12-13T12:01:27.840Z,78.47
2018-12-13T12:02:27.827Z,78.75
2018-12-13T12:03:27.813Z,79.23
2018-12-13T12:04:27.806Z,78.28
2018-12-13T12:05:27.795Z,78.47
2018-12-13T12:06:27.783Z,78.66
2018-12-13T12:07:27.772Z,79.61
2018-12-13T12:08:27.756Z,79.42
2018-12-13T12:09:27.743Z,79.42
2018-12-13T12:10:27.732Z,79.71
2018-12-13T12:11:27.719Z,79.33
2018-12-13T12:12:27.712Z,79.33
2018-12-13T12:13:27.700Z,79.71
2018-12-13T12:14:27.689Z,79.04
2018-12-13T12:15:27.676Z,79.52
2018-12-13T12:16:27.660Z,79.23
2018-12-13T12:17:27.647Z,79.90
2018-12-13T12:18:27.640Z,79.99
2018-12-13T12:19:27.628Z,79.71
2018-12-13T12:20:27.611Z,80.18
2018-12-13T12:21:27.603Z,79.71
2018-12-13T12:22:27.589Z,79.23
2018-12-13T12:23:27.575Z,79.14
2018-12-13T12:24:27.569Z,79.04
2018-12-13T12:25:27.556Z,79.23
2018-12-13T12:26:27.547Z,79.71
2018-12-13T12:27:27.533Z,79.04
2018-12-13T12:28:27.515Z,79.33
2018-12-13T12:29:27.503Z,80.18
2018-12-13T12:30:27.494Z,79.42
2018-12-13T12:31:27.478Z,79.46
2018-12-13T12:32:27.472Z,79.33
2018-12-13T12:33:27.458Z,79.55
2018-12-13T12:34:27.441Z,79.23
2018-12-13T12:35:27.430Z,79.33
2018-12-13T12:36:27.422Z,79.52
2018-12-13T12:37:27.411Z,78.89
2018-12-13T12:38:27.398Z,78.99
2018-12-13T12:39:27.389Z,78.99
2018-12-13T12:40:27.369Z,78.95
2018-12-13T12:41:27.356Z,79.17
2018-12-13T12:42:27.347Z,79.36
2018-12-13T12:43:27.332Z,78.99
2018-12-13T12:44:27.325Z,78.70
2018-12-13T12:45:27.313Z,78.89
2018-12-13T12:46:27.303Z,79.27
2018-12-13T12:47:27.289Z,79.08
2018-12-13T12:48:27.272Z,78.42
2018-12-13T12:49:27.260Z,78.51
2018-12-13T12:50:27.252Z,78.61
2018-12-13T12:51:27.241Z,78.19
2018-12-13T12:52:27.225Z,78.38